Time;durP1;ratioP1;P1;durP2;ratioP2;P2;SDS_P1;SDS_P2;PMS_P1;PMS_P2;Temp;Humidity;BMP_temperature;BMP_pressure;BME280_temperature;BME280_humidity;BME280_pressure;Samples;Min_cycle;Max_cycle;Signal;HPM_P1;HPM_P2
2023/01/16 00:01:05;;;;;;;1.17;0.50;;;11.20;88.20;;;;;;5056616;28;20028;-78
2023/01/16 00:03:30;;;;;;;1.45;0.50;;;11.20;88.20;;;;;;5055293;28;20016;-79
2023/01/16 00:05:56;;;;;;;1.45;0.52;;;11.20;88.20;;;;;;5072237;28;20020;-78
2023/01/16 00:08:21;;;;;;;0.70;0.50;;;11.20;88.20;;;;;;5054895;28;20017;-79
2023/01/16 00:10:47;;;;;;;1.20;0.60;;;11.20;88.20;;;;;;5072629;28;20042;-79
2023/01/16 00:13:13;;;;;;;1.52;0.70;;;11.20;88.30;;;;;;5054842;28;20477;-78
2023/01/16 00:15:46;;;;;;;1.90;0.60;;;11.20;88.20;;;;;;5073121;28;20090;-78
2023/01/16 00:18:12;;;;;;;2.33;0.77;;;11.20;88.30;;;;;;5054968;28;20035;-79
2023/01/16 00:20:37;;;;;;;0.52;0.40;;;11.20;88.30;;;;;;5054714;28;20393;-78
2023/01/16 00:23:03;;;;;;;1.92;0.60;;;11.20;88.30;;;;;;5054858;28;20077;-79
2023/01/16 00:25:29;;;;;;;1.85;0.70;;;11.20;88.30;;;;;;5054584;28;20027;-78
2023/01/16 00:27:54;;;;;;;1.75;0.63;;;11.20;88.30;;;;;;5077704;28;20035;-78
2023/01/16 00:30:20;;;;;;;2.83;0.70;;;11.20;88.30;;;;;;5056333;28;20017;-79
2023/01/16 00:32:46;;;;;;;1.85;0.65;;;11.10;88.30;;;;;;5055634;28;20105;-78
2023/01/16 00:35:12;;;;;;;1.67;0.50;;;11.20;88.30;;;;;;5073148;28;20504;-76
2023/01/16 00:37:37;;;;;;;1.38;0.50;;;11.30;88.40;;;;;;5055250;28;20485;-79
2023/01/16 00:40:03;;;;;;;0.65;0.40;;;11.20;88.30;;;;;;5072974;28;20042;-79
2023/01/16 00:42:29;;;;;;;0.70;0.43;;;11.20;88.40;;;;;;5054947;28;20021;-79
2023/01/16 00:44:54;;;;;;;3.60;0.57;;;11.20;88.40;;;;;;5055527;28;20131;-79
2023/01/16 00:47:20;;;;;;;1.02;0.40;;;11.20;88.40;;;;;;5073436;28;20060;-78
2023/01/16 00:49:45;;;;;;;1.92;0.40;;;11.20;88.40;;;;;;5072878;28;20083;-78
2023/01/16 00:52:11;;;;;;;1.67;0.73;;;11.20;88.40;;;;;;5054973;28;20033;-79
2023/01/16 00:54:36;;;;;;;1.23;0.57;;;11.20;88.40;;;;;;5073676;28;20033;-80
2023/01/16 00:57:02;;;;;;;0.70;0.50;;;11.20;88.50;;;;;;5073942;28;20055;-79
2023/01/16 00:59:27;;;;;;;1.98;0.70;;;11.20;88.50;;;;;;5073394;28;20534;-78
2023/01/16 01:01:53;;;;;;;1.65;0.55;;;11.20;88.50;;;;;;5073743;28;20035;-79
2023/01/16 01:04:18;;;;;;;2.05;0.90;;;11.20;88.40;;;;;;5073405;28;20159;-79
2023/01/16 01:06:44;;;;;;;1.83;0.60;;;11.20;88.40;;;;;;5055213;28;20051;-79
2023/01/16 01:09:09;;;;;;;1.40;0.55;;;11.20;88.40;;;;;;5055305;28;20020;-79
2023/01/16 01:11:35;;;;;;;1.85;0.63;;;11.20;88.40;;;;;;5072841;28;20369;-79
2023/01/16 01:14:00;;;;;;;2.28;0.52;;;11.20;88.40;;;;;;5054726;28;20086;-79
2023/01/16 01:16:26;;;;;;;1.58;0.60;;;11.20;88.40;;;;;;5072868;28;20392;-78
2023/01/16 01:18:51;;;;;;;0.50;0.40;;;11.20;88.30;;;;;;5058133;28;20442;-78
2023/01/16 01:21:17;;;;;;;0.60;0.52;;;11.20;88.30;;;;;;5076237;28;20428;-78
2023/01/16 01:23:42;;;;;;;1.05;0.60;;;11.20;88.90;;;;;;5058134;28;20060;-78
2023/01/16 01:26:13;;;;;;;1.73;0.50;;;11.20;88.40;;;;;;5058445;28;20020;-78
2023/01/16 01:28:39;;;;;;;0.93;0.50;;;11.20;88.40;;;;;;5075904;28;20016;-78
2023/01/16 01:31:06;;;;;;;1.00;0.40;;;11.20;88.40;;;;;;5075648;28;20086;-79
2023/01/16 01:33:31;;;;;;;1.27;0.38;;;11.20;88.30;;;;;;5075482;28;20025;-79
2023/01/16 01:35:57;;;;;;;1.10;0.50;;;11.20;88.30;;;;;;5057653;28;20028;-80
2023/01/16 01:38:23;;;;;;;0.93;0.50;;;11.20;88.30;;;;;;5057671;28;20104;-78
2023/01/16 01:40:48;;;;;;;0.80;0.40;;;11.20;88.30;;;;;;5075744;28;20377;-78
2023/01/16 01:43:15;;;;;;;0.60;0.43;;;11.20;88.30;;;;;;5064424;28;20032;-79
2023/01/16 01:45:45;;;;;;;1.13;0.60;;;11.20;88.10;;;;;;5077035;28;20389;-79
2023/01/16 01:48:11;;;;;;;2.15;0.60;;;11.20;87.80;;;;;;5057828;28;20496;-78
2023/01/16 01:50:45;;;;;;;0.77;0.35;;;11.20;87.50;;;;;;5075066;28;20036;-77
2023/01/16 01:53:25;;;;;;;0.90;0.50;;;11.20;87.60;;;;;;5061557;28;20557;-78
2023/01/16 01:55:51;;;;;;;1.15;0.68;;;11.10;87.70;;;;;;5076658;28;20031;-78
2023/01/16 01:58:22;;;;;;;1.90;0.52;;;11.20;87.90;;;;;;5057919;28;20078;-78
2023/01/16 02:00:52;;;;;;;1.15;0.50;;;11.20;87.90;;;;;;5057633;28;20029;-78
2023/01/16 02:03:43;;;;;;;1.35;0.60;;;11.10;87.70;;;;;;5057365;28;20066;-78
2023/01/16 02:06:17;;;;;;;10.10;1.27;;;11.20;87.90;;;;;;5063149;28;20052;-78
2023/01/16 02:08:44;;;;;;;1.20;0.50;;;11.20;87.80;;;;;;5076781;28;20025;-78
2023/01/16 02:11:25;;;;;;;1.02;0.65;;;11.20;87.90;;;;;;5075404;28;20020;-78
2023/01/16 02:14:00;;;;;;;1.02;0.43;;;11.20;87.90;;;;;;5075256;28;20021;-79
2023/01/16 02:19:22;;;;;;;1.15;0.50;;;11.20;88.00;;;;;;5075198;28;20078;-80
2023/01/16 02:22:05;;;;;;;0.85;0.40;;;11.10;87.80;;;;;;5075088;28;20491;-78
2023/01/16 02:24:52;;;;;;;1.30;0.40;;;11.10;87.90;;;;;;5056697;28;20400;-78
2023/01/16 02:27:56;;;;;;;1.63;0.70;;;11.20;87.90;;;;;;5056906;28;20117;-78
2023/01/16 02:30:37;;;;;;;1.45;0.60;;;11.20;87.70;;;;;;5076953;28;20080;-79
2023/01/16 02:33:12;;;;;;;1.10;0.50;;;11.20;87.80;;;;;;5079231;28;20051;-79
2023/01/16 02:35:59;;;;;;;0.98;0.47;;;11.20;87.90;;;;;;5076493;28;20095;-79
2023/01/16 02:38:57;;;;;;;1.40;0.57;;;11.20;87.90;;;;;;5058121;28;20025;-78
2023/01/16 02:41:50;;;;;;;1.75;0.70;;;11.20;88.00;;;;;;5057487;28;20020;-79
2023/01/16 02:44:27;;;;;;;0.50;0.32;;;11.10;87.80;;;;;;5074446;28;20035;-78
2023/01/16 02:47:36;;;;;;;0.85;0.32;;;11.10;87.80;;;;;;5056579;28;20031;-78
2023/01/16 02:50:13;;;;;;;1.92;0.55;;;11.10;87.80;;;;;;5056762;28;20032;-78
2023/01/16 02:52:59;;;;;;;0.90;0.50;;;11.10;87.60;;;;;;5079946;28;20400;-79
2023/01/16 02:55:40;;;;;;;1.88;0.50;;;11.10;87.60;;;;;;5057616;28;20116;-77
2023/01/16 02:58:08;;;;;;;0.98;0.43;;;11.10;87.70;;;;;;5056787;28;20098;-78
2023/01/16 03:00:35;;;;;;;0.98;0.43;;;11.10;87.70;;;;;;5055897;28;20115;-78
2023/01/16 03:03:00;;;;;;;1.58;0.70;;;11.10;87.70;;;;;;5074226;28;20108;-78
2023/01/16 03:05:35;;;;;;;3.95;0.60;;;11.20;87.80;;;;;;5075764;28;20048;-78
2023/01/16 03:08:34;;;;;;;5.65;0.85;;;11.10;87.70;;;;;;5075745;28;20027;-79
2023/01/16 03:11:01;;;;;;;1.58;0.65;;;11.10;87.70;;;;;;5057897;28;20113;-78
2023/01/16 03:13:43;;;;;;;2.03;0.60;;;11.10;87.70;;;;;;5056234;28;20111;-78
2023/01/16 03:16:29;;;;;;;0.60;0.40;;;11.10;87.70;;;;;;5055836;28;20366;-78
2023/01/16 03:19:10;;;;;;;1.98;0.60;;;11.10;87.70;;;;;;5078469;28;20028;-79
2023/01/16 03:21:50;;;;;;;1.25;0.40;;;11.10;88.30;;;;;;5077914;28;20117;-78
2023/01/16 03:24:36;;;;;;;0.95;0.45;;;11.20;88.00;;;;;;5074924;28;20035;-78
2023/01/16 03:27:17;;;;;;;1.48;0.50;;;11.10;87.90;;;;;;5071028;28;20090;-79
2023/01/16 03:29:53;;;;;;;1.17;0.52;;;11.20;88.00;;;;;;5055905;28;20024;-78
2023/01/16 03:32:36;;;;;;;0.93;0.40;;;11.10;88.00;;;;;;5056950;28;20493;-78
2023/01/16 03:35:15;;;;;;;1.15;0.60;;;11.10;88.00;;;;;;5073694;28;20024;-78
2023/01/16 03:37:55;;;;;;;1.27;0.40;;;11.10;88.00;;;;;;5073669;28;20025;-79
2023/01/16 03:40:26;;;;;;;0.90;0.50;;;11.10;87.90;;;;;;5073278;28;20025;-79
2023/01/16 03:43:07;;;;;;;0.98;0.40;;;11.10;88.00;;;;;;5055214;28;20028;-79
2023/01/16 03:45:42;;;;;;;1.38;0.50;;;11.10;87.70;;;;;;5074192;28;20055;-79
2023/01/16 03:48:16;;;;;;;1.55;0.60;;;11.10;87.80;;;;;;5062261;28;20032;-79
2023/01/16 03:50:49;;;;;;;1.58;0.50;;;11.10;87.70;;;;;;5055174;28;20040;-79
2023/01/16 03:53:17;;;;;;;0.85;0.47;;;11.10;87.60;;;;;;5075639;28;20051;-80
2023/01/16 03:55:56;;;;;;;1.55;0.60;;;11.10;87.70;;;;;;5077943;28;20021;-80
2023/01/16 03:58:33;;;;;;;1.35;0.50;;;11.10;87.70;;;;;;5073832;28;20086;-80
2023/01/16 04:01:20;;;;;;;0.95;0.35;;;11.10;87.80;;;;;;5055293;28;20029;-79
2023/01/16 04:03:52;;;;;;;1.05;0.47;;;11.10;87.90;;;;;;5075577;28;20021;-80
2023/01/16 04:06:32;;;;;;;0.60;0.40;;;11.10;87.90;;;;;;5077217;28;20023;-77
2023/01/16 04:09:01;;;;;;;1.70;0.50;;;11.10;87.80;;;;;;5055080;28;20048;-79
2023/01/16 04:11:27;;;;;;;1.13;0.38;;;11.10;87.90;;;;;;5072997;28;20032;-79
2023/01/16 04:13:55;;;;;;;1.52;0.43;;;11.10;87.90;;;;;;5072835;28;20033;-78
2023/01/16 04:16:21;;;;;;;0.40;0.40;;;11.10;87.70;;;;;;5073163;28;20489;-77
2023/01/16 04:18:50;;;;;;;1.13;0.50;;;11.10;87.90;;;;;;5072887;28;20063;-79
2023/01/16 04:21:16;;;;;;;1.33;0.50;;;11.10;87.90;;;;;;5058662;28;20107;-79
2023/01/16 04:23:42;;;;;;;1.80;0.68;;;11.10;87.90;;;;;;5058382;28;20105;-78
2023/01/16 04:26:08;;;;;;;1.10;0.40;;;11.10;87.90;;;;;;5055444;28;20024;-78
2023/01/16 04:28:33;;;;;;;1.30;0.50;;;11.10;87.90;;;;;;5070954;28;20108;-80
2023/01/16 04:30:58;;;;;;;1.08;0.40;;;11.10;87.90;;;;;;5069045;28;20040;-78
2023/01/16 04:33:24;;;;;;;0.45;0.30;;;11.10;88.00;;;;;;5050085;28;20032;-78
2023/01/16 04:35:50;;;;;;;0.65;0.30;;;11.10;87.80;;;;;;5052075;28;20032;-78
2023/01/16 04:38:15;;;;;;;0.95;0.45;;;11.10;87.70;;;;;;5051167;28;20370;-77
2023/01/16 04:44:34;;;;;;;;;;;;;;;;;;;;;
2023/01/16 04:50:39;;;;;;;2.00;0.60;;;11.10;87.80;;;;;;5048907;28;20091;-78
2023/01/16 04:53:33;;;;;;;1.15;0.55;;;11.70;88.10;;;;;;5051072;28;20075;-78
2023/01/16 04:56:00;;;;;;;0.88;0.50;;;11.10;87.70;;;;;;5053330;28;20539;-82
2023/01/16 04:59:34;;;;;;;;;;;;;;;;;;;;;
2023/01/16 05:03:00;;;;;;;2.30;0.82;;;10.40;87.30;;;;;;4973682;28;20569;-77
2023/01/16 05:06:34;;;;;;;;;;;;;;;;;;;;;
2023/01/16 05:13:27;;;;;;;1.23;0.38;;;11.10;87.80;;;;;;5028821;28;20116;-78
2023/01/16 05:19:50;;;;;;;0.50;0.30;;;10.90;87.70;;;;;;5011525;28;20037;-80
2023/01/16 05:23:15;;;;;;;0.70;0.45;;;11.20;87.80;;;;;;5013389;28;20112;-79
2023/01/16 05:29:27;;;;;;;0.60;0.30;;;11.10;87.60;;;;;;5033722;28;20393;-77
2023/01/16 05:32:51;;;;;;;1.15;0.40;;;11.00;87.70;;;;;;5030708;28;20021;-81
2023/01/16 05:35:31;;;;;;;0.52;0.38;;;11.10;87.50;;;;;;5021604;28;20553;-79
2023/01/16 05:38:35;;;;;;;1.02;0.30;;;11.00;87.60;;;;;;5043396;28;20405;-76
2023/01/16 05:44:02;;;;;;;6.53;0.85;;;11.10;87.40;;;;;;5053567;28;20029;-79
2023/01/16 05:46:50;;;;;;;1.35;0.45;;;11.10;87.40;;;;;;5052364;28;20029;-78
2023/01/16 05:49:16;;;;;;;1.30;0.40;;;11.10;87.30;;;;;;5051853;28;20504;-78
2023/01/16 05:52:13;;;;;;;2.13;0.60;;;11.20;87.30;;;;;;5115266;22;20052;-77
2023/01/16 05:54:38;;;;;;;1.05;0.50;;;11.10;87.10;;;;;;5084711;28;20040;-78
2023/01/16 05:57:17;;;;;;;1.67;0.40;;;11.20;87.10;;;;;;5075099;28;20110;-83
2023/01/16 06:03:59;;;;;;;1.02;0.45;;;11.00;87.00;;;;;;5009278;28;20948;-77
2023/01/16 06:07:07;;;;;;;0.88;0.43;;;11.00;87.00;;;;;;5001648;28;20034;-78
2023/01/16 06:09:53;;;;;;;1.15;0.50;;;11.00;87.00;;;;;;5009704;28;20045;-77
2023/01/16 06:13:15;;;;;;;0.90;0.35;;;11.00;87.60;;;;;;5089660;28;20481;-76
2023/01/16 06:15:42;;;;;;;0.60;0.40;;;11.10;87.00;;;;;;5008753;28;20045;-78
2023/01/16 06:18:16;;;;;;;0.77;0.40;;;11.00;86.90;;;;;;4993144;28;20030;-77
2023/01/16 06:20:51;;;;;;;1.20;0.47;;;11.60;87.30;;;;;;5075985;28;20118;-79
2023/01/16 06:23:17;;;;;;;0.70;0.30;;;11.10;87.10;;;;;;5069276;28;20153;-76
2023/01/16 06:25:42;;;;;;;0.88;0.40;;;12.00;87.60;;;;;;5070131;28;20793;-78
2023/01/16 06:28:08;;;;;;;1.15;0.40;;;11.10;87.20;;;;;;5069991;28;20424;-79
2023/01/16 06:30:33;;;;;;;1.67;0.50;;;11.10;87.20;;;;;;5069442;28;20021;-78
2023/01/16 06:32:59;;;;;;;5.18;1.02;;;11.10;87.10;;;;;;5069367;28;20028;-78
2023/01/16 06:35:24;;;;;;;6.43;1.00;;;11.10;86.60;;;;;;5070966;28;20064;-79
2023/01/16 06:37:50;;;;;;;4.35;0.73;;;11.00;86.10;;;;;;5073088;28;20373;-79
2023/01/16 06:40:15;;;;;;;4.15;0.80;;;11.10;86.10;;;;;;5068051;28;20479;-78
2023/01/16 06:42:41;;;;;;;5.78;0.70;;;11.00;86.10;;;;;;5068810;28;20341;-79
2023/01/16 06:45:07;;;;;;;4.03;0.93;;;11.10;86.30;;;;;;5071143;28;20430;-78
2023/01/16 06:47:33;;;;;;;4.25;0.82;;;11.00;86.30;;;;;;5067343;28;20028;-79
2023/01/16 06:49:58;;;;;;;6.30;0.90;;;11.00;86.40;;;;;;5066550;28;20037;-78
2023/01/16 06:52:23;;;;;;;2.47;0.90;;;11.00;86.30;;;;;;5067938;28;20047;-79
2023/01/16 06:54:49;;;;;;;5.85;0.85;;;11.10;86.40;;;;;;5066085;28;20047;-80
2023/01/16 06:57:14;;;;;;;2.50;1.00;;;11.00;86.40;;;;;;5068204;28;20495;-80
2023/01/16 06:59:40;;;;;;;2.47;1.00;;;11.00;86.50;;;;;;5069591;28;20480;-79
2023/01/16 07:02:05;;;;;;;4.28;1.00;;;11.10;86.50;;;;;;5067981;28;20024;-80
2023/01/16 07:04:31;;;;;;;4.68;1.00;;;11.00;86.50;;;;;;5067749;28;20362;-79
2023/01/16 07:06:56;;;;;;;4.15;1.23;;;11.00;86.60;;;;;;5069489;28;20025;-79
2023/01/16 07:09:28;;;;;;;2.58;0.93;;;11.10;86.60;;;;;;5071183;28;20060;-80
2023/01/16 07:11:53;;;;;;;2.13;1.00;;;11.00;86.60;;;;;;5067381;28;20028;-79
2023/01/16 07:22:38;;;;;;;3.88;1.10;;;11.00;86.50;;;;;;5068178;28;20415;-80
2023/01/16 07:25:12;;;;;;;6.70;1.42;;;11.00;86.60;;;;;;5066765;28;20025;-77
2023/01/16 07:27:38;;;;;;;4.32;1.17;;;11.10;86.40;;;;;;5067786;28;20356;-78
2023/01/16 07:30:05;;;;;;;2.80;1.13;;;11.00;86.40;;;;;;5066519;28;20025;-80
2023/01/16 07:32:30;;;;;;;2.80;1.08;;;11.00;86.50;;;;;;5067195;28;20056;-79
2023/01/16 07:34:56;;;;;;;7.43;1.23;;;11.00;86.40;;;;;;5067034;28;20024;-79
2023/01/16 07:37:21;;;;;;;4.20;1.20;;;11.00;86.50;;;;;;5066211;28;20033;-79
2023/01/16 07:39:46;;;;;;;4.68;1.05;;;11.00;86.50;;;;;;5069775;28;20554;-79
2023/01/16 07:42:12;;;;;;;3.22;1.02;;;11.00;86.50;;;;;;5066619;28;20029;-78
2023/01/16 07:44:37;;;;;;;3.63;1.20;;;11.10;86.40;;;;;;5066680;28;20025;-80
2023/01/16 07:47:03;;;;;;;3.75;1.30;;;11.10;86.20;;;;;;5068066;28;20033;-81
2023/01/16 07:49:28;;;;;;;4.40;1.23;;;11.00;86.10;;;;;;5068452;28;20033;-78
2023/01/16 07:51:54;;;;;;;2.13;1.00;;;11.00;86.10;;;;;;5068619;28;20397;-79
2023/01/16 07:54:21;;;;;;;5.60;1.70;;;11.10;86.60;;;;;;5067070;28;20036;-79
2023/01/16 07:56:47;;;;;;;4.15;1.30;;;11.10;86.00;;;;;;5068251;28;20024;-80
2023/01/16 07:59:12;;;;;;;4.20;1.38;;;11.10;86.10;;;;;;5069505;28;20120;-80
2023/01/16 08:01:39;;;;;;;2.85;1.25;;;11.10;85.90;;;;;;5069375;28;20115;-79
2023/01/16 08:04:04;;;;;;;3.00;1.30;;;11.00;86.40;;;;;;5066436;28;20028;-79
2023/01/16 08:06:30;;;;;;;3.17;1.20;;;11.10;85.90;;;;;;5067950;28;20032;-79
2023/01/16 08:08:55;;;;;;;2.95;1.08;;;11.10;86.00;;;;;;5069057;28;20060;-80
2023/01/16 08:11:37;;;;;;;4.85;1.45;;;11.00;86.20;;;;;;5069742;28;20035;-79
2023/01/16 08:14:03;;;;;;;;;;;11.00;85.90;;;;;;5067634;28;20027;-81
2023/01/16 08:16:28;;;;;;;3.10;1.33;;;11.00;86.50;;;;;;5065691;28;20318;-79
2023/01/16 08:18:54;;;;;;;4.25;1.23;;;11.00;86.00;;;;;;5065715;28;20056;-79
2023/01/16 08:21:19;;;;;;;5.88;1.60;;;11.10;86.00;;;;;;5065428;28;20484;-79
2023/01/16 08:23:45;;;;;;;3.90;1.30;;;11.00;86.00;;;;;;5066592;28;20028;-78
2023/01/16 08:26:11;;;;;;;4.18;1.48;;;11.00;86.00;;;;;;5067116;28;20049;-78
2023/01/16 08:28:37;;;;;;;3.55;1.45;;;11.00;85.80;;;;;;5071299;28;20476;-79
2023/01/16 08:31:08;;;;;;;3.70;1.35;;;11.00;86.00;;;;;;5073592;28;20098;-78
2023/01/16 08:33:38;;;;;;;3.70;1.30;;;11.10;85.90;;;;;;5074347;28;20081;-79
2023/01/16 08:36:09;;;;;;;3.88;1.40;;;11.00;86.00;;;;;;5073890;28;20044;-79
2023/01/16 08:38:35;;;;;;;4.18;1.58;;;11.00;85.90;;;;;;5074944;28;20029;-79
2023/01/16 08:41:00;;;;;;;5.25;1.30;;;11.00;85.90;;;;;;5072455;28;20029;-78
2023/01/16 08:51:57;;;;;;;4.50;1.58;;;11.00;85.80;;;;;;5075428;28;20549;-79
2023/01/16 08:54:23;;;;;;;7.60;1.48;;;11.00;85.80;;;;;;5073742;28;20039;-79
2023/01/16 08:56:49;;;;;;;4.25;1.60;;;11.00;85.80;;;;;;5072804;28;20036;-78
2023/01/16 08:59:14;;;;;;;3.90;1.52;;;11.00;85.60;;;;;;5072663;28;20498;-78
2023/01/16 09:01:41;;;;;;;3.72;1.50;;;11.00;85.80;;;;;;5073021;28;20341;-79
2023/01/16 09:04:07;;;;;;;3.22;1.38;;;11.00;85.80;;;;;;5074380;28;20031;-80
2023/01/16 09:06:35;;;;;;;4.10;1.50;;;11.00;85.70;;;;;;5073978;28;20214;-78
2023/01/16 09:09:04;;;;;;;5.78;1.50;;;11.00;85.70;;;;;;5071623;28;20409;-80
2023/01/16 09:14:15;;;;;;;3.88;1.48;;;11.00;85.60;;;;;;5073644;28;20147;-80
2023/01/16 09:16:40;;;;;;;4.97;1.50;;;11.00;85.50;;;;;;5075324;28;20503;-78
2023/01/16 09:19:06;;;;;;;3.13;1.38;;;10.90;85.40;;;;;;5074462;28;20060;-79
2023/01/16 09:21:31;;;;;;;4.95;1.60;;;11.00;85.40;;;;;;5074265;28;20029;-80
2023/01/16 09:23:57;;;;;;;3.80;1.50;;;11.00;85.40;;;;;;5074722;28;20489;-80
2023/01/16 09:26:22;;;;;;;4.00;1.60;;;10.90;85.20;;;;;;5072590;28;20151;-78
2023/01/16 09:28:47;;;;;;;3.92;1.45;;;11.00;85.30;;;;;;5072819;28;20400;-78
2023/01/16 09:31:13;;;;;;;2.95;1.20;;;11.00;85.80;;;;;;5071246;28;20021;-79
2023/01/16 09:33:40;;;;;;;3.42;1.40;;;11.00;85.40;;;;;;5071088;28;20567;-79
2023/01/16 09:36:06;;;;;;;3.83;1.50;;;11.00;85.20;;;;;;5074191;28;20028;-78
2023/01/16 09:38:32;;;;;;;5.95;1.50;;;11.00;85.10;;;;;;5072105;28;20035;-79
2023/01/16 09:40:58;;;;;;;3.53;1.40;;;11.00;85.20;;;;;;5069372;28;20039;-79
2023/01/16 09:43:38;;;;;;;3.65;1.42;;;11.00;84.90;;;;;;5068240;28;20028;-79
2023/01/16 09:46:24;;;;;;;4.68;1.55;;;11.00;85.10;;;;;;5069320;28;20021;-78
2023/01/16 09:49:03;;;;;;;3.60;1.40;;;11.00;84.90;;;;;;5069561;28;20020;-80
2023/01/16 09:51:36;;;;;;;3.85;1.52;;;11.00;85.10;;;;;;5073339;28;20031;-80
2023/01/16 09:59:47;;;;;;;3.47;1.48;;;11.00;84.90;;;;;;5069608;28;20070;-78
2023/01/16 10:02:32;;;;;;;4.13;1.50;;;11.00;84.80;;;;;;5068277;28;20461;-79
2023/01/16 10:04:59;;;;;;;4.53;1.80;;;11.00;84.90;;;;;;5069208;28;20052;-79
2023/01/16 10:07:47;;;;;;;3.30;1.27;;;11.00;84.50;;;;;;5067640;28;20024;-79
2023/01/16 10:10:25;;;;;;;3.25;1.40;;;11.00;84.80;;;;;;5069637;28;20031;-80
2023/01/16 10:13:15;;;;;;;2.95;1.20;;;11.00;84.90;;;;;;5069733;28;20043;-79
2023/01/16 10:15:50;;;;;;;3.33;1.50;;;11.00;84.70;;;;;;5069762;28;20137;-79
2023/01/16 10:18:43;;;;;;;3.90;1.40;;;11.00;84.50;;;;;;5069614;28;20423;-79
2023/01/16 10:21:41;;;;;;;4.05;1.58;;;11.00;84.80;;;;;;5069237;28;20032;-79
2023/01/16 10:24:39;;;;;;;4.68;1.40;;;11.00;84.60;;;;;;5034697;28;20508;-79
2023/01/16 10:27:33;;;;;;;3.45;1.40;;;11.00;84.40;;;;;;5069798;28;20028;-78
2023/01/16 10:30:19;;;;;;;4.00;1.30;;;10.90;84.10;;;;;;5070036;28;20029;-79
2023/01/16 10:32:57;;;;;;;4.68;1.50;;;11.00;84.60;;;;;;5067863;28;20463;-79
2023/01/16 10:35:32;;;;;;;3.45;1.50;;;11.00;84.70;;;;;;5070062;28;20024;-79
2023/01/16 10:38:33;;;;;;;3.95;1.38;;;11.00;84.80;;;;;;5068405;28;20071;-79
2023/01/16 10:40:59;;;;;;;4.25;1.35;;;11.00;84.70;;;;;;5068183;28;20032;-78
2023/01/16 10:49:26;;;;;;;3.35;1.23;;;11.00;84.80;;;;;;5069411;28;20448;-79
2023/01/16 10:51:51;;;;;;;4.03;1.55;;;11.00;85.10;;;;;;5066970;28;20036;-79
2023/01/16 10:54:17;;;;;;;2.92;1.23;;;11.00;85.10;;;;;;5067202;28;20031;-79
2023/01/16 10:56:43;;;;;;;2.50;1.20;;;11.00;84.90;;;;;;5068589;28;20024;-78
2023/01/16 10:59:11;;;;;;;4.07;1.33;;;11.00;85.00;;;;;;5067061;28;20051;-79
2023/01/16 11:01:37;;;;;;;4.22;1.50;;;11.00;84.90;;;;;;5066597;28;20496;-78
2023/01/16 11:04:05;;;;;;;3.13;1.20;;;11.00;85.00;;;;;;5068439;28;20086;-80
2023/01/16 11:06:31;;;;;;;3.58;1.30;;;10.90;84.90;;;;;;5067867;28;20435;-79
2023/01/16 11:09:03;;;;;;;3.85;1.50;;;11.00;85.40;;;;;;5068724;28;20031;-79
2023/01/16 11:20:35;;;;;;;3.88;1.10;;;11.00;84.40;;;;;;5069179;28;20105;-79
2023/01/16 11:23:12;;;;;;;5.95;1.70;;;11.00;84.40;;;;;;5068778;28;20048;-79
2023/01/16 11:25:38;;;;;;;3.38;1.38;;;11.00;84.30;;;;;;5067622;28;20514;-79
2023/01/16 11:28:07;;;;;;;2.88;1.02;;;11.00;83.90;;;;;;5068727;28;20029;-79
2023/01/16 11:30:39;;;;;;;2.50;1.08;;;10.90;84.30;;;;;;5068151;28;20071;-79
2023/01/16 11:33:10;;;;;;;3.50;1.30;;;11.00;84.00;;;;;;5068398;28;20036;-79
2023/01/16 11:35:36;;;;;;;3.72;1.08;;;11.00;83.80;;;;;;5066932;28;20039;-79
2023/01/16 11:38:04;;;;;;;2.42;1.10;;;11.00;83.60;;;;;;5068256;28;20028;-79
2023/01/16 11:40:43;;;;;;;3.35;1.00;;;11.00;83.70;;;;;;5067844;28;20028;-80
2023/01/16 11:46:12;;;;;;;3.45;1.08;;;10.90;83.80;;;;;;5067880;28;20036;-80
2023/01/16 11:48:48;;;;;;;2.97;0.98;;;11.00;84.00;;;;;;5068136;28;20024;-79
2023/01/16 11:51:21;;;;;;;3.53;1.02;;;10.90;83.80;;;;;;5065650;28;20040;-79
2023/01/16 11:53:48;;;;;;;3.15;1.00;;;10.90;83.70;;;;;;5068288;28;20028;-79
2023/01/16 11:56:40;;;;;;;2.83;1.10;;;11.00;83.50;;;;;;5067427;28;20029;-78
2023/01/16 11:59:41;;;;;;;3.28;0.95;;;10.90;83.80;;;;;;5067340;28;20040;-78
2023/01/16 12:02:47;;;;;;;1.33;0.88;;;10.90;83.60;;;;;;5065513;28;20032;-78
2023/01/16 12:09:04;;;;;;;3.10;1.00;;;10.90;83.90;;;;;;5024290;28;20030;-79
2023/01/16 12:11:48;;;;;;;3.13;1.00;;;10.90;83.80;;;;;;5007426;28;20029;-79
2023/01/16 12:14:30;;;;;;;2.88;1.13;;;10.90;83.50;;;;;;5060586;28;20417;-81
2023/01/16 12:17:17;;;;;;;2.65;0.90;;;10.90;84.20;;;;;;5069603;28;20017;-79
2023/01/16 12:20:08;;;;;;;3.63;1.20;;;11.00;83.70;;;;;;5066373;28;20039;-79
2023/01/16 12:23:05;;;;;;;2.58;0.73;;;10.90;84.10;;;;;;5067052;28;20493;-78
2023/01/16 12:25:54;;;;;;;2.97;1.00;;;11.00;83.80;;;;;;5067242;28;20024;-79
2023/01/16 12:28:41;;;;;;;1.85;0.80;;;11.00;84.10;;;;;;5067331;28;20044;-79
2023/01/16 12:31:35;;;;;;;1.98;0.88;;;10.90;83.70;;;;;;5066583;28;20107;-79
2023/01/16 12:34:24;;;;;;;2.47;0.98;;;10.90;84.00;;;;;;5065258;28;20042;-80
2023/01/16 12:37:22;;;;;;;2.17;0.90;;;10.90;84.10;;;;;;5065264;28;20029;-77
2023/01/16 12:40:07;;;;;;;1.63;0.85;;;11.00;84.20;;;;;;5069304;28;20020;-80
2023/01/16 12:45:34;;;;;;;1.88;0.90;;;10.90;83.90;;;;;;5067407;28;20451;-78
2023/01/16 12:48:25;;;;;;;1.45;0.73;;;10.90;84.00;;;;;;5066177;28;20032;-78
2023/01/16 12:51:07;;;;;;;2.22;0.70;;;10.90;84.10;;;;;;5066312;28;20307;-79
2023/01/16 12:54:04;;;;;;;1.83;0.80;;;10.90;84.10;;;;;;5066341;28;20033;-79
2023/01/16 12:57:08;;;;;;;1.63;0.80;;;10.90;84.30;;;;;;5067328;28;20163;-80
2023/01/16 13:00:08;;;;;;;1.85;0.85;;;10.90;84.20;;;;;;5066977;28;20304;-78
2023/01/16 13:03:09;;;;;;;1.65;0.80;;;10.90;84.30;;;;;;5053301;28;20439;-78
2023/01/16 13:05:36;;;;;;;2.58;0.95;;;10.90;84.20;;;;;;5064767;28;20025;-78
2023/01/16 13:08:10;;;;;;;1.90;0.85;;;10.90;84.10;;;;;;5064661;28;20234;-78
2023/01/16 13:13:33;;;;;;;1.85;0.70;;;10.90;83.90;;;;;;5068707;28;20116;-79
2023/01/16 13:16:09;;;;;;;1.90;0.90;;;10.90;84.10;;;;;;5069090;28;20499;-79
2023/01/16 13:18:47;;;;;;;1.35;0.80;;;11.00;84.00;;;;;;5069195;28;20550;-78
2023/01/16 13:21:19;;;;;;;2.35;0.90;;;11.00;83.90;;;;;;5068112;28;20029;-79
2023/01/16 13:23:51;;;;;;;2.13;0.70;;;10.90;83.30;;;;;;5071113;28;20489;-80
2023/01/16 13:26:18;;;;;;;1.45;0.77;;;10.90;83.60;;;;;;5072141;28;20033;-79
2023/01/16 13:28:49;;;;;;;1.98;0.77;;;10.90;83.40;;;;;;5068145;28;20515;-78
2023/01/16 13:31:42;;;;;;;2.03;0.70;;;10.90;83.60;;;;;;5070160;28;20052;-79
2023/01/16 13:34:29;;;;;;;1.23;0.68;;;11.00;83.70;;;;;;5070739;28;20033;-78
2023/01/16 13:37:36;;;;;;;1.45;0.70;;;11.00;83.70;;;;;;5070615;28;20385;-78
2023/01/16 13:40:34;;;;;;;1.63;0.65;;;11.00;83.60;;;;;;5071621;28;20031;-79
2023/01/16 13:45:59;;;;;;;1.30;0.80;;;10.90;83.50;;;;;;5050249;28;20039;-80
2023/01/16 13:48:32;;;;;;;2.53;0.88;;;11.00;82.90;;;;;;5072210;28;20023;-79
2023/01/16 13:51:03;;;;;;;0.98;0.70;;;11.00;83.30;;;;;;5071428;28;20040;-79
2023/01/16 13:53:30;;;;;;;1.35;0.70;;;11.10;83.40;;;;;;5071298;28;20107;-80
2023/01/16 13:56:16;;;;;;;1.42;0.65;;;11.00;83.30;;;;;;5069537;28;20507;-80
2023/01/16 13:58:45;;;;;;;1.30;0.60;;;11.10;83.30;;;;;;5069753;28;20411;-79
2023/01/16 14:01:37;;;;;;;1.38;0.57;;;11.10;82.80;;;;;;5069788;28;20082;-79
2023/01/16 14:04:15;;;;;;;1.50;0.68;;;11.10;83.00;;;;;;5070462;28;20296;-79
2023/01/16 14:06:49;;;;;;;1.67;0.75;;;11.00;82.90;;;;;;5070438;28;20150;-79
2023/01/16 14:09:18;;;;;;;1.40;0.70;;;11.10;83.00;;;;;;5070898;28;20029;-78
2023/01/16 14:12:20;;;;;;;2.85;0.77;;;11.10;83.30;;;;;;5069045;28;20039;-80
2023/01/16 14:17:53;;;;;;;1.10;0.60;;;11.00;82.70;;;;;;5065432;28;20044;-81
2023/01/16 14:21:04;;;;;;;1.52;0.70;;;11.00;82.70;;;;;;5068204;28;20480;-78
2023/01/16 14:26:44;;;;;;;1.65;0.70;;;11.00;82.80;;;;;;5069448;28;20498;-80
2023/01/16 14:29:24;;;;;;;1.48;0.60;;;11.00;82.80;;;;;;5059096;28;20083;-79
2023/01/16 14:32:17;;;;;;;1.30;0.70;;;11.00;83.00;;;;;;5069456;28;20025;-80
2023/01/16 14:34:51;;;;;;;1.27;0.60;;;11.00;82.80;;;;;;5069841;28;20078;-79
2023/01/16 14:37:24;;;;;;;1.52;0.70;;;11.00;82.50;;;;;;5069719;28;20025;-79
2023/01/16 14:39:59;;;;;;;1.13;0.60;;;11.00;82.80;;;;;;5069366;28;20099;-79
2023/01/16 14:56:45;;;;;;;1.40;0.65;;;11.00;82.40;;;;;;5069364;28;20562;-78
2023/01/16 14:59:23;;;;;;;0.85;0.57;;;10.80;82.20;;;;;;5068535;28;20418;-80
2023/01/16 15:02:18;;;;;;;1.13;0.60;;;10.90;82.90;;;;;;5069635;28;20025;-79
2023/01/16 15:05:49;;;;;;;1.50;0.82;;;10.90;82.80;;;;;;5067749;28;20024;-78
2023/01/16 15:08:23;;;;;;;0.85;0.47;;;10.90;82.50;;;;;;5042143;28;20532;-79
2023/01/16 15:10:51;;;;;;;6.43;0.70;;;10.90;82.90;;;;;;5069298;28;20028;-79
2023/01/16 15:14:25;;;;;;;1.63;0.68;;;10.90;82.70;;;;;;5070533;28;20035;-79
2023/01/16 15:16:18;;;;;;;0.68;0.50;;;10.90;82.90;;;;;;5068527;28;20108;-80